createdAt,value
2018-11-28T00:00:41.073Z,98352.56
2018-11-28T00:01:46.087Z,98355.45
2018-11-28T00:02:51.486Z,98357.92
2018-11-28T00:03:57.344Z,98356.68
2018-11-28T00:05:04.230Z,98358.72
2018-11-28T00:06:09.306Z,98353.77
2018-11-28T00:07:15.452Z,98354.17
2018-11-28T00:08:20.298Z,98352.53
2018-11-28T00:09:26.159Z,98350.89
2018-11-28T00:10:30.578Z,98349.22
2018-11-28T00:11:35.400Z,98347.15
2018-11-28T00:12:41.629Z,98348.78
2018-11-28T00:13:47.857Z,98343.04
2018-11-28T00:14:52.824Z,98340.96
2018-11-28T00:15:59.041Z,98339.74
2018-11-28T00:17:04.302Z,98342.59
2018-11-28T00:18:09.281Z,98343.80
2018-11-28T00:19:15.018Z,98342.19
2018-11-28T00:20:21.371Z,98336.84
2018-11-28T00:21:26.141Z,98335.61
2018-11-28T00:22:31.233Z,98329.02
2018-11-28T00:23:36.804Z,98327.39
2018-11-28T00:24:42.533Z,98328.62
2018-11-28T00:25:47.574Z,98330.68
2018-11-28T00:26:53.834Z,98326.11
2018-11-28T00:27:58.553Z,98322.79
2018-11-28T00:29:03.793Z,98322.77
2018-11-28T00:30:09.999Z,98326.48
2018-11-28T00:31:15.221Z,98323.98
2018-11-28T00:32:20.206Z,98325.64
2018-11-28T00:33:27.667Z,98330.98
2018-11-28T00:34:32.492Z,98327.68
2018-11-28T00:35:38.385Z,98330.16
2018-11-28T00:36:43.138Z,98326.45
2018-11-28T00:37:48.580Z,98330.14
2018-11-28T00:38:53.735Z,98321.47
2018-11-28T00:40:09.108Z,98328.90
2018-11-28T00:41:14.241Z,98329.31
2018-11-28T00:42:20.056Z,98321.49
2018-11-28T00:43:25.214Z,98316.56
2018-11-28T00:44:32.978Z,98318.66
2018-11-28T00:45:41.744Z,98317.45
2018-11-28T00:46:47.990Z,98320.77
2018-11-28T00:47:52.616Z,98319.53
2018-11-28T00:48:57.986Z,98321.64
2018-11-28T00:50:02.631Z,98316.72
2018-11-28T00:51:07.371Z,98322.91
2018-11-28T00:52:12.324Z,98318.38
2018-11-28T00:53:17.002Z,98322.09
2018-11-28T00:54:21.751Z,98322.51
2018-11-28T00:55:28.365Z,98323.77
2018-11-28T00:56:33.454Z,98323.34
2018-11-28T00:57:38.315Z,98325.42
2018-11-28T00:58:44.639Z,98321.73
2018-11-28T00:59:50.945Z,98327.50
2018-11-28T01:00:56.972Z,98320.06
2018-11-28T01:02:01.817Z,98321.71
2018-11-28T01:03:06.617Z,98320.89
2018-11-28T01:04:11.471Z,98318.44
2018-11-28T01:05:17.045Z,98314.34
2018-11-28T01:06:22.485Z,98314.72
2018-11-28T01:07:27.183Z,98311.83
2018-11-28T01:08:32.853Z,98314.31
2018-11-28T01:09:38.210Z,98315.16
2018-11-28T01:10:42.954Z,98316.80
2018-11-28T01:11:47.945Z,98319.29
2018-11-28T01:12:52.985Z,98322.61
2018-11-28T01:13:58.226Z,98319.73
2018-11-28T01:15:04.129Z,98320.56
2018-11-28T01:16:09.222Z,98312.34
2018-11-28T01:17:14.951Z,98313.99
2018-11-28T01:18:20.212Z,98316.06
2018-11-28T01:19:25.843Z,98314.42
2018-11-28T01:20:31.731Z,98311.94
2018-11-28T01:21:37.279Z,98311.95
2018-11-28T01:22:42.365Z,98312.36
2018-11-28T01:23:47.354Z,98309.86
2018-11-28T01:24:52.437Z,98312.32
2018-11-28T01:25:57.398Z,98312.72
2018-11-28T01:27:03.794Z,98313.14
2018-11-28T01:28:10.240Z,98309.47
2018-11-28T01:29:15.896Z,98311.95
2018-11-28T01:30:21.777Z,98308.64
2018-11-28T01:31:28.599Z,98313.99
2018-11-28T01:32:34.855Z,98316.47
2018-11-28T01:33:40.819Z,98318.94
2018-11-28T01:34:45.885Z,98323.47
2018-11-28T01:35:51.141Z,98320.14
2018-11-28T01:36:57.252Z,98326.33
2018-11-28T01:38:02.838Z,98334.98
2018-11-28T01:39:08.115Z,98328.80
2018-11-28T01:40:17.684Z,98334.98
2018-11-28T01:41:22.655Z,98331.27
2018-11-28T01:42:27.312Z,98326.76
2018-11-28T01:43:32.332Z,98328.00
2018-11-28T01:44:37.972Z,98331.29
2018-11-28T01:45:43.250Z,98330.88
2018-11-28T01:46:49.326Z,98334.98
2018-11-28T01:47:54.227Z,98330.88
2018-11-28T01:48:59.565Z,98327.16
2018-11-28T01:50:06.102Z,98333.33
2018-11-28T01:51:11.193Z,98336.22
2018-11-28T01:52:15.842Z,98332.08
2018-11-28T01:53:21.267Z,98329.20
2018-11-28T01:54:26.142Z,98334.97
2018-11-28T01:55:30.796Z,98332.08
2018-11-28T01:56:37.131Z,98326.71
2018-11-28T01:57:42.054Z,98324.66
2018-11-28T01:58:46.774Z,98325.89
2018-11-28T01:59:52.463Z,98328.37
2018-11-28T02:00:57.722Z,98313.95
2018-11-28T02:02:03.995Z,98322.18
2018-11-28T02:03:09.141Z,98323.82
2018-11-28T02:04:13.963Z,98321.77
2018-11-28T02:05:19.360Z,98321.78
2018-11-28T02:06:25.597Z,98322.20
2018-11-28T02:07:30.969Z,98318.92
2018-11-28T02:08:36.523Z,98323.85
2018-11-28T02:09:44.571Z,98322.22
2018-11-28T02:10:49.868Z,98324.25
2018-11-28T02:11:54.691Z,98318.50
2018-11-28T02:12:59.818Z,98318.91
2018-11-28T02:14:04.788Z,98326.33
2018-11-28T02:15:11.106Z,98329.22
2018-11-28T02:16:16.164Z,98321.38
2018-11-28T02:17:21.375Z,98321.81
2018-11-28T02:18:27.184Z,98321.41
2018-11-28T02:19:33.952Z,98320.17
2018-11-28T02:20:38.848Z,98323.06
2018-11-28T02:21:43.674Z,98320.99
2018-11-28T02:22:48.741Z,98319.38
2018-11-28T02:23:54.936Z,98325.16
2018-11-28T02:25:01.478Z,98324.32
2018-11-28T02:26:06.568Z,98328.88
2018-11-28T02:27:11.654Z,98329.70
2018-11-28T02:28:17.602Z,98330.53
2018-11-28T02:29:24.326Z,98322.70
2018-11-28T02:30:28.720Z,98321.88
2018-11-28T02:31:34.482Z,98328.05
2018-11-28T02:32:39.504Z,98324.34
2018-11-28T02:33:44.350Z,98328.05
2018-11-28T02:34:49.986Z,98320.61
2018-11-28T02:35:55.433Z,98320.19
2018-11-28T02:37:01.467Z,98324.73
2018-11-28T02:38:06.394Z,98318.95
2018-11-28T02:39:12.215Z,98319.75
2018-11-28T02:40:17.729Z,98322.63
2018-11-28T02:41:24.233Z,98317.30
2018-11-28T02:42:29.029Z,98318.12
2018-11-28T02:43:34.459Z,98320.16
2018-11-28T02:44:39.668Z,98323.85
2018-11-28T02:45:45.050Z,98319.33
2018-11-28T02:46:50.160Z,98327.20
2018-11-28T02:47:56.140Z,98318.95
2018-11-28T02:49:01.170Z,98319.75
2018-11-28T02:50:07.205Z,98320.61
2018-11-28T02:51:12.242Z,98321.86
2018-11-28T02:52:17.863Z,98323.08
2018-11-28T02:53:22.722Z,98313.19
2018-11-28T02:54:28.000Z,98311.53
2018-11-28T02:55:33.403Z,98314.02
2018-11-28T02:56:40.270Z,98316.52
2018-11-28T02:57:46.914Z,98312.41
2018-11-28T02:58:52.824Z,98306.22
2018-11-28T02:59:58.393Z,98309.09
2018-11-28T03:01:03.933Z,98302.06
2018-11-28T03:02:09.451Z,98302.06
2018-11-28T03:03:14.476Z,98301.66
2018-11-28T03:04:19.450Z,98300.79
2018-11-28T03:05:24.863Z,98310.28
2018-11-28T03:06:30.954Z,98305.32
2018-11-28T03:07:36.246Z,98306.95
2018-11-28T03:08:41.126Z,98306.10
2018-11-28T03:09:46.932Z,98304.45
2018-11-28T03:10:51.916Z,98304.03
2018-11-28T03:11:58.374Z,98310.22
2018-11-28T03:13:03.751Z,98312.27
2018-11-28T03:14:09.333Z,98313.12
2018-11-28T03:15:17.408Z,98308.21
2018-11-28T03:16:23.005Z,98311.92
2018-11-28T03:17:28.147Z,98314.42
2018-11-28T03:18:33.242Z,98309.50
2018-11-28T03:19:38.781Z,98319.44
2018-11-28T03:20:43.824Z,98304.20
2018-11-28T03:21:49.298Z,98315.71
2018-11-28T03:22:55.344Z,98310.77
2018-11-28T03:24:00.513Z,98311.22
2018-11-28T03:25:05.818Z,98308.31
2018-11-28T03:26:10.518Z,98311.62
2018-11-28T03:27:16.038Z,98311.20
2018-11-28T03:28:21.543Z,98309.55
2018-11-28T03:29:27.460Z,98311.20
2018-11-28T03:30:32.216Z,98314.09
2018-11-28T03:31:38.022Z,98312.00
2018-11-28T03:32:42.925Z,98311.19
2018-11-28T03:33:47.930Z,98314.91
2018-11-28T03:34:53.245Z,98312.42
2018-11-28T03:36:00.071Z,98316.94
2018-11-28T03:37:05.100Z,98312.82
2018-11-28T03:38:10.051Z,98315.70
2018-11-28T03:39:16.643Z,98321.08
2018-11-28T03:40:22.232Z,98322.30
2018-11-28T03:41:26.969Z,98326.02
2018-11-28T03:42:32.414Z,98326.42
2018-11-28T03:43:37.739Z,98324.77
2018-11-28T03:44:42.966Z,98319.38
2018-11-28T03:45:47.945Z,98317.33
2018-11-28T03:46:54.011Z,98326.83
2018-11-28T03:47:59.559Z,98316.13
2018-11-28T03:49:05.350Z,98326.42
2018-11-28T03:50:13.320Z,98317.34
2018-11-28T03:51:17.986Z,98319.38
2018-11-28T03:52:22.924Z,98325.16
2018-11-28T03:53:27.749Z,98320.62
2018-11-28T03:54:33.973Z,98327.23
2018-11-28T03:55:39.442Z,98325.59
2018-11-28T03:56:45.318Z,98327.70
2018-11-28T03:57:50.884Z,98331.41
2018-11-28T03:58:55.702Z,98339.64
2018-11-28T04:00:01.960Z,98331.37
2018-11-28T04:01:07.994Z,98334.66
2018-11-28T04:02:13.407Z,98334.27
2018-11-28T04:03:18.298Z,98327.70
2018-11-28T04:04:23.566Z,98329.34
2018-11-28T04:05:29.056Z,98327.66
2018-11-28T04:06:34.749Z,98332.61
2018-11-28T04:07:40.455Z,98330.94
2018-11-28T04:08:46.752Z,98328.47
2018-11-28T04:09:51.713Z,98323.11
2018-11-28T04:10:56.319Z,98322.69
2018-11-28T04:12:02.253Z,98321.05
2018-11-28T04:13:07.255Z,98323.52
2018-11-28T04:14:11.961Z,98315.27
2018-11-28T04:15:18.279Z,98316.09
2018-11-28T04:16:23.685Z,98313.64
2018-11-28T04:17:29.441Z,98323.09
2018-11-28T04:18:34.643Z,98323.13
2018-11-28T04:19:40.344Z,98324.38
2018-11-28T04:20:45.968Z,98321.51
2018-11-28T04:21:51.877Z,98319.86
2018-11-28T04:22:58.612Z,98321.53
2018-11-28T04:24:03.222Z,98322.75
2018-11-28T04:25:08.565Z,98313.69
2018-11-28T04:26:14.541Z,98319.05
2018-11-28T04:27:20.007Z,98307.52
2018-11-28T04:28:25.161Z,98309.98
2018-11-28T04:29:30.787Z,98304.63
2018-11-28T04:30:36.477Z,98300.09
2018-11-28T04:31:41.669Z,98306.69
2018-11-28T04:32:47.892Z,98305.84
2018-11-28T04:33:52.856Z,98307.92
2018-11-28T04:34:58.282Z,98305.44
2018-11-28T04:36:04.739Z,98305.84
2018-11-28T04:37:10.630Z,98310.78
2018-11-28T04:38:15.886Z,98307.91
2018-11-28T04:39:21.388Z,98312.86
2018-11-28T04:41:02.610Z,98303.78
2018-11-28T04:42:08.752Z,98306.67
2018-11-28T04:43:13.587Z,98302.95
2018-11-28T04:44:18.566Z,98311.98
2018-11-28T04:45:23.912Z,98316.53
2018-11-28T04:46:29.171Z,98321.89
2018-11-28T04:47:34.066Z,98314.08
2018-11-28T04:48:38.989Z,98323.94
2018-11-28T04:49:44.146Z,98324.75
2018-11-28T04:50:49.182Z,98313.20
2018-11-28T04:51:55.184Z,98322.28
2018-11-28T04:53:01.446Z,98323.52
2018-11-28T04:54:06.582Z,98321.45
2018-11-28T04:55:14.525Z,98323.09
2018-11-28T04:56:19.800Z,98324.75
2018-11-28T04:57:25.040Z,98329.70
2018-11-28T04:58:30.430Z,98332.99
2018-11-28T04:59:35.254Z,98334.25
2018-11-28T05:00:41.400Z,98339.59
2018-11-28T05:01:47.207Z,98337.97
2018-11-28T05:02:52.323Z,98336.73
2018-11-28T05:03:58.105Z,98337.55
2018-11-28T05:05:03.578Z,98339.20
2018-11-28T05:06:08.326Z,98337.98
2018-11-28T05:07:28.874Z,98338.82
2018-11-28T05:08:33.715Z,98335.89
2018-11-28T05:09:38.983Z,98334.23
2018-11-28T05:10:44.286Z,98332.98
2018-11-28T05:11:49.331Z,98327.23
2018-11-28T05:12:54.190Z,98330.95
2018-11-28T05:13:58.922Z,98322.72
2018-11-28T05:15:04.139Z,98328.06
2018-11-28T05:16:09.767Z,98321.91
2018-11-28T05:17:15.905Z,98325.63
2018-11-28T05:18:20.534Z,98326.86
2018-11-28T05:19:25.491Z,98329.70
2018-11-28T05:20:31.729Z,98331.37
2018-11-28T05:21:36.348Z,98319.81
2018-11-28T05:22:41.061Z,98329.70
2018-11-28T05:23:46.251Z,98332.59
2018-11-28T05:24:51.925Z,98328.48
2018-11-28T05:25:57.414Z,98323.53
2018-11-28T05:27:03.197Z,98314.06
2018-11-28T05:28:08.016Z,98315.27
2018-11-28T05:29:13.441Z,98312.36
2018-11-28T05:30:18.621Z,98313.22
2018-11-28T05:31:25.246Z,98318.20
2018-11-28T05:32:30.481Z,98323.16
2018-11-28T05:33:35.400Z,98323.95
2018-11-28T05:34:40.518Z,98315.70
2018-11-28T05:35:46.405Z,98317.33
2018-11-28T05:36:51.337Z,98312.77
2018-11-28T05:37:56.662Z,98313.59
2018-11-28T05:39:02.550Z,98321.43
2018-11-28T05:40:10.642Z,98318.14
2018-11-28T05:41:15.455Z,98319.80
2018-11-28T05:42:20.726Z,98321.84
2018-11-28T05:43:26.139Z,98310.75
2018-11-28T05:44:31.780Z,98322.72
2018-11-28T05:45:38.118Z,98319.41
2018-11-28T05:46:43.743Z,98319.41
2018-11-28T05:47:50.208Z,98318.98
2018-11-28T05:48:55.098Z,98313.22
2018-11-28T05:50:00.007Z,98313.22
2018-11-28T05:51:05.315Z,98316.94
2018-11-28T05:52:11.089Z,98326.42
2018-11-28T05:53:16.129Z,98330.97
2018-11-28T05:54:22.457Z,98327.67
2018-11-28T05:55:27.533Z,98331.41
2018-11-28T05:56:33.569Z,98332.59
2018-11-28T05:57:40.840Z,98324.35
2018-11-28T05:58:45.932Z,98329.72
2018-11-28T05:59:51.076Z,98337.13
2018-11-28T06:00:57.178Z,98339.58
2018-11-28T06:02:02.387Z,98344.11
2018-11-28T06:03:08.380Z,98346.18
2018-11-28T06:04:13.145Z,98345.38
2018-11-28T06:05:17.807Z,98341.67
2018-11-28T06:06:22.699Z,98347.44
2018-11-28T06:07:27.602Z,98354.03
2018-11-28T06:08:33.157Z,98352.80
2018-11-28T06:09:39.357Z,98351.96
2018-11-28T06:10:46.184Z,98347.86
2018-11-28T06:11:51.177Z,98347.05
2018-11-28T06:12:58.083Z,98340.84
2018-11-28T06:14:03.291Z,98347.84
2018-11-28T06:15:09.096Z,98339.99
2018-11-28T06:16:15.542Z,98337.94
2018-11-28T06:17:23.746Z,98335.87
2018-11-28T06:18:32.845Z,98335.87
2018-11-28T06:19:39.056Z,98329.28
2018-11-28T06:20:44.990Z,98328.03
2018-11-28T06:21:51.140Z,98339.13
2018-11-28T06:22:56.747Z,98326.76
2018-11-28T06:24:02.978Z,98343.23
2018-11-28T06:25:15.866Z,98339.13
2018-11-28T06:26:16.332Z,98338.71
2018-11-28T06:27:23.545Z,98335.00
2018-11-28T06:28:29.343Z,98340.80
2018-11-28T06:29:36.386Z,98337.48
2018-11-28T06:43:54.471Z,98344.06
2018-11-28T06:45:03.291Z,98346.48
2018-11-28T06:46:09.117Z,98354.29
2018-11-28T06:47:14.307Z,98360.06
2018-11-28T06:48:19.629Z,98354.69
2018-11-28T06:49:26.010Z,98359.22
2018-11-28T06:50:31.027Z,98355.94
2018-11-28T06:51:38.120Z,98355.94
2018-11-28T06:52:43.209Z,98355.13
2018-11-28T06:53:48.804Z,98349.74
2018-11-28T06:54:53.494Z,98350.55
2018-11-28T06:56:00.805Z,98355.49
2018-11-28T06:57:05.768Z,98347.22
2018-11-28T06:58:10.543Z,98356.70
2018-11-28T06:59:16.693Z,98352.56
2018-11-28T07:00:21.966Z,98354.63
2018-11-28T07:01:27.239Z,98355.04
2018-11-28T07:02:33.249Z,98360.83
2018-11-28T07:03:39.197Z,98350.92
2018-11-28T07:04:43.945Z,98361.63
2018-11-28T07:05:48.842Z,98354.20
2018-11-28T07:06:55.966Z,98360.38
2018-11-28T07:08:01.730Z,98356.66
2018-11-28T07:09:11.996Z,98364.92
2018-11-28T07:10:18.434Z,98371.13
2018-11-28T07:11:25.323Z,98364.94
2018-11-28T07:12:32.425Z,98371.55
2018-11-28T07:13:37.557Z,98361.23
2018-11-28T07:14:42.741Z,98358.31
2018-11-28T07:15:49.348Z,98371.52
2018-11-28T07:16:58.468Z,98366.58
2018-11-28T07:18:09.579Z,98357.92
2018-11-28T07:19:15.728Z,98363.27
2018-11-28T07:20:23.491Z,98378.52
2018-11-28T07:21:29.726Z,98373.56
2018-11-28T07:22:35.324Z,98381.81
2018-11-28T07:23:40.218Z,98381.01
2018-11-28T07:24:45.175Z,98378.94
2018-11-28T07:25:51.428Z,98389.23
2018-11-28T07:26:57.036Z,98392.11
2018-11-28T07:28:01.830Z,98392.92
2018-11-28T07:29:08.742Z,98383.84
2018-11-28T07:30:16.732Z,98383.02
2018-11-28T07:31:22.102Z,98389.19
2018-11-28T07:32:27.015Z,98385.47
2018-11-28T07:33:31.895Z,98391.22
2018-11-28T07:34:36.795Z,98395.36
2018-11-28T07:35:42.334Z,98397.41
2018-11-28T07:36:47.252Z,98389.19
2018-11-28T07:37:52.150Z,98397.81
2018-11-28T07:38:57.346Z,98400.28
2018-11-28T07:40:02.441Z,98397.39
2018-11-28T07:41:07.514Z,98403.55
2018-11-28T07:42:13.372Z,98399.02
2018-11-28T07:43:19.737Z,98400.27
2018-11-28T07:44:24.661Z,98408.92
2018-11-28T07:45:30.497Z,98408.52
2018-11-28T07:46:37.089Z,98400.69
2018-11-28T07:47:42.103Z,98402.33
2018-11-28T07:48:47.664Z,98408.53
2018-11-28T07:49:57.383Z,98407.30
2018-11-28T07:51:02.344Z,98406.45
2018-11-28T07:52:06.990Z,98405.22
2018-11-28T07:53:11.945Z,98410.15
2018-11-28T07:54:17.905Z,98408.08
2018-11-28T07:55:23.176Z,98409.30
2018-11-28T07:56:28.229Z,98413.80
2018-11-28T07:57:32.986Z,98406.77
2018-11-28T07:58:37.869Z,98410.89
2018-11-28T07:59:42.744Z,98405.94
2018-11-28T08:00:48.331Z,98411.25
2018-11-28T08:01:55.441Z,98412.84
2018-11-28T08:03:00.095Z,98415.72
2018-11-28T08:04:05.165Z,98423.59
2018-11-28T08:05:10.286Z,98415.75
2018-11-28T08:06:15.699Z,98419.85
2018-11-28T08:07:20.731Z,98418.20
2018-11-28T08:08:26.213Z,98424.42
2018-11-28T08:09:31.119Z,98418.64
2018-11-28T08:10:36.188Z,98421.51
2018-11-28T08:11:41.740Z,98425.64
2018-11-28T08:12:46.658Z,98425.22
2018-11-28T08:13:51.366Z,98423.14
2018-11-28T08:14:57.386Z,98414.45
2018-11-28T08:16:02.109Z,98421.89
2018-11-28T08:17:07.798Z,98416.14
2018-11-28T08:18:12.493Z,98417.79
2018-11-28T08:19:23.868Z,98416.55
2018-11-28T08:20:24.787Z,98411.17
2018-11-28T08:21:33.298Z,98409.97
2018-11-28T08:22:40.602Z,98420.67
2018-11-28T08:23:48.516Z,98418.19
2018-11-28T08:24:53.614Z,98419.01
2018-11-28T08:25:58.687Z,98414.02
2018-11-28T08:27:03.666Z,98410.34
2018-11-28T08:28:08.753Z,98408.25
2018-11-28T08:29:13.925Z,98410.33
2018-11-28T08:30:20.232Z,98411.95
2018-11-28T08:31:25.562Z,98407.73
2018-11-28T08:32:31.660Z,98410.56
2018-11-28T08:33:38.427Z,98408.56
2018-11-28T08:34:44.004Z,98416.33
2018-11-28T08:35:48.980Z,98415.08
2018-11-28T08:36:54.479Z,98411.78
2018-11-28T08:37:59.485Z,98418.42
2018-11-28T08:39:06.083Z,98411.76
2018-11-28T08:40:13.445Z,98412.95
2018-11-28T08:41:20.454Z,98415.39
2018-11-28T08:42:25.241Z,98412.84
2018-11-28T08:43:30.549Z,98411.94
2018-11-28T08:44:35.294Z,98412.00
2018-11-28T08:45:40.972Z,98407.50
2018-11-28T08:46:46.536Z,98419.05
2018-11-28T08:47:52.296Z,98413.33
2018-11-28T08:48:57.376Z,98417.03
2018-11-28T08:50:02.245Z,98412.38
2018-11-28T08:51:09.234Z,98426.78
2018-11-28T08:52:13.935Z,98414.81
2018-11-28T08:53:19.508Z,98416.44
2018-11-28T08:54:24.234Z,98405.72
2018-11-28T08:55:29.025Z,98410.23
2018-11-28T08:56:34.599Z,98415.12
2018-11-28T08:57:39.260Z,98408.46
2018-11-28T08:58:44.218Z,98409.22
2018-11-28T08:59:49.208Z,98400.50
2018-11-28T09:00:54.022Z,98408.73
2018-11-28T09:01:58.710Z,98404.59
2018-11-28T09:03:03.383Z,98404.61
2018-11-28T09:04:09.712Z,98406.59
2018-11-28T09:05:15.700Z,98404.86
2018-11-28T09:06:20.796Z,98404.33
2018-11-28T09:07:25.840Z,98407.45
2018-11-28T09:08:30.841Z,98410.27
2018-11-28T09:09:37.803Z,98416.44
2018-11-28T09:10:42.718Z,98400.80
2018-11-28T09:11:48.617Z,98399.60
2018-11-28T09:12:54.114Z,98415.72
2018-11-28T09:14:04.290Z,98410.71
2018-11-28T09:15:03.762Z,98407.81
2018-11-28T09:16:08.479Z,98399.02
2018-11-28T09:17:15.255Z,98408.44
2018-11-28T09:18:19.746Z,98416.50
2018-11-28T09:19:25.125Z,98414.79
2018-11-28T09:20:29.843Z,98412.52
2018-11-28T09:21:34.961Z,98418.20
2018-11-28T09:22:39.664Z,98407.06
2018-11-28T09:23:47.518Z,98408.47
2018-11-28T09:24:53.408Z,98414.45
2018-11-28T09:26:00.668Z,98421.02
2018-11-28T09:27:05.692Z,98426.38
2018-11-28T09:28:10.528Z,98418.73
2018-11-28T09:29:15.959Z,98426.27
2018-11-28T09:30:24.653Z,98425.13
2018-11-28T09:31:31.422Z,98422.41
2018-11-28T09:32:37.378Z,98421.70
2018-11-28T09:33:43.616Z,98427.94
2018-11-28T09:34:49.532Z,98416.11
2018-11-28T09:35:54.348Z,98418.67
2018-11-28T09:36:59.316Z,98414.97
2018-11-28T09:38:04.902Z,98421.22
2018-11-28T09:39:09.592Z,98419.97
2018-11-28T09:40:19.227Z,98428.09
2018-11-28T09:41:23.931Z,98423.41
2018-11-28T09:42:28.750Z,98428.05
2018-11-28T09:43:34.329Z,98418.56
2018-11-28T09:44:39.391Z,98432.23
2018-11-28T09:45:45.945Z,98417.47
2018-11-28T09:46:51.061Z,98420.40
2018-11-28T09:47:56.068Z,98428.00
2018-11-28T09:49:01.302Z,98418.84
2018-11-28T09:50:06.906Z,98415.78
2018-11-28T09:51:12.334Z,98418.52
2018-11-28T09:52:17.159Z,98414.80
2018-11-28T09:53:22.549Z,98413.88
2018-11-28T09:54:27.406Z,98407.48
2018-11-28T09:55:33.012Z,98415.30
2018-11-28T09:56:38.666Z,98419.90
2018-11-28T09:57:46.133Z,98411.73
2018-11-28T09:58:50.817Z,98412.05
2018-11-28T09:59:55.520Z,98409.52
2018-11-28T10:01:00.434Z,98417.63
2018-11-28T10:02:05.591Z,98418.05
2018-11-28T10:03:10.314Z,98416.11
2018-11-28T10:04:17.079Z,98417.91
2018-11-28T10:05:25.599Z,98419.14
2018-11-28T10:06:33.083Z,98405.16
2018-11-28T10:07:38.357Z,98405.66
2018-11-28T10:08:43.531Z,98394.11
2018-11-28T10:09:48.640Z,98404.50
2018-11-28T10:10:55.363Z,98414.47
2018-11-28T10:12:00.372Z,98417.02
2018-11-28T10:13:06.189Z,98409.09
2018-11-28T10:14:11.951Z,98409.55
2018-11-28T10:15:18.306Z,98404.50
2018-11-28T10:16:24.321Z,98406.79
2018-11-28T10:17:30.163Z,98406.05
2018-11-28T10:18:35.922Z,98402.72
2018-11-28T10:19:40.964Z,98408.45
2018-11-28T10:20:46.164Z,98405.55
2018-11-28T10:21:51.351Z,98405.57
2018-11-28T10:22:56.378Z,98407.50
2018-11-28T10:24:01.631Z,98406.63
2018-11-28T10:25:08.012Z,98396.91
2018-11-28T10:26:13.297Z,98411.02
2018-11-28T10:27:18.092Z,98391.58
2018-11-28T10:28:23.072Z,98391.58
2018-11-28T10:29:28.481Z,98394.95
2018-11-28T10:30:34.638Z,98393.71
2018-11-28T10:31:39.783Z,98403.14
2018-11-28T10:32:44.829Z,98398.58
2018-11-28T10:33:50.302Z,98402.67
2018-11-28T10:34:55.452Z,98403.39
2018-11-28T10:36:01.292Z,98397.61
2018-11-28T10:37:07.150Z,98404.26
2018-11-28T10:38:12.549Z,98387.26
2018-11-28T10:39:17.283Z,98394.90
2018-11-28T10:40:23.190Z,98388.27
2018-11-28T10:41:28.328Z,98399.02
2018-11-28T10:42:33.370Z,98393.63
2018-11-28T10:43:39.666Z,98391.16
2018-11-28T10:44:44.675Z,98384.06
2018-11-28T10:45:49.449Z,98388.62
2018-11-28T10:46:54.235Z,98398.63
2018-11-28T10:48:00.012Z,98386.24
2018-11-28T10:49:05.237Z,98397.48
2018-11-28T10:50:18.065Z,98391.97
2018-11-28T10:51:23.469Z,98394.92
2018-11-28T10:52:28.269Z,98395.63
2018-11-28T10:53:33.284Z,98397.58
2018-11-28T10:54:39.909Z,98396.59
2018-11-28T10:55:46.037Z,98396.72
2018-11-28T10:56:53.100Z,98390.31
2018-11-28T10:57:57.862Z,98396.16
2018-11-28T10:59:02.730Z,98392.29
2018-11-28T11:00:09.698Z,98389.88
2018-11-28T11:01:20.394Z,98380.83
2018-11-28T11:02:30.786Z,98392.42
2018-11-28T11:03:41.692Z,98388.25
2018-11-28T11:04:51.755Z,98386.33
2018-11-28T11:06:03.329Z,98390.41
2018-11-28T11:07:12.971Z,98377.36
2018-11-28T11:08:23.346Z,98387.20
2018-11-28T11:09:33.258Z,98377.50
2018-11-28T11:10:43.590Z,98371.50
2018-11-28T11:11:53.391Z,98383.71
2018-11-28T11:13:06.477Z,98373.54
2018-11-28T11:14:22.449Z,98369.59
2018-11-28T11:15:29.321Z,98372.03
2018-11-28T11:16:35.003Z,98375.49
2018-11-28T11:17:40.837Z,98373.38
2018-11-28T11:18:46.208Z,98361.41
2018-11-28T11:19:51.691Z,98367.49
2018-11-28T11:20:58.745Z,98367.09
2018-11-28T11:22:03.620Z,98368.93
2018-11-28T11:23:12.264Z,98368.86
2018-11-28T11:24:17.342Z,98367.09
2018-11-28T11:25:27.295Z,98376.14
2018-11-28T11:26:40.853Z,98364.24
2018-11-28T11:27:47.237Z,98354.89
2018-11-28T11:28:53.912Z,98372.09
2018-11-28T11:29:59.149Z,98359.74
2018-11-28T11:42:59.427Z,98353.27
2018-11-28T11:44:04.786Z,98349.94
2018-11-28T11:45:11.902Z,98352.09
2018-11-28T11:46:16.846Z,98348.49
2018-11-28T11:47:22.836Z,98342.61
2018-11-28T11:48:28.614Z,98350.88
2018-11-28T11:49:33.901Z,98349.80
2018-11-28T11:50:38.937Z,98344.59
2018-11-28T11:51:46.153Z,98356.50
2018-11-28T11:52:53.334Z,98350.23
2018-11-28T11:53:58.486Z,98341.23
2018-11-28T11:55:04.567Z,98356.12
2018-11-28T11:56:11.078Z,98352.78
2018-11-28T11:57:16.225Z,98354.94
2018-11-28T11:58:21.359Z,98348.76
2018-11-28T11:59:30.572Z,98341.95
2018-11-28T12:00:35.792Z,98341.63
2018-11-28T12:01:41.444Z,98341.46
2018-11-28T12:02:55.008Z,98346.01
2018-11-28T12:04:00.176Z,98337.84
2018-11-28T12:05:05.692Z,98341.23
2018-11-28T12:06:11.068Z,98346.86
2018-11-28T12:07:16.866Z,98345.41
2018-11-28T12:08:21.978Z,98341.72
2018-11-28T12:09:27.193Z,98346.69
2018-11-28T12:10:32.164Z,98341.10
2018-11-28T12:11:37.681Z,98343.62
2018-11-28T12:12:42.400Z,98334.92
2018-11-28T12:13:50.845Z,98345.58
2018-11-28T12:14:56.270Z,98336.92
2018-11-28T12:16:01.146Z,98325.48
2018-11-28T12:17:08.480Z,98333.81
2018-11-28T12:18:13.586Z,98336.66
2018-11-28T12:19:18.348Z,98335.77
2018-11-28T12:20:25.731Z,98326.41
2018-11-28T12:21:31.016Z,98329.78
2018-11-28T12:22:36.392Z,98332.54
2018-11-28T12:23:41.344Z,98334.14
2018-11-28T12:24:46.713Z,98333.22
2018-11-28T12:25:51.897Z,98339.50
2018-11-28T12:26:57.294Z,98334.89
2018-11-28T12:28:02.413Z,98335.77
2018-11-28T12:29:07.676Z,98338.66
2018-11-28T12:30:14.434Z,98337.59
2018-11-28T12:31:19.733Z,98341.44
2018-11-28T12:32:25.051Z,98341.55
2018-11-28T12:33:30.862Z,98328.51
2018-11-28T12:34:36.189Z,98319.52
2018-11-28T12:35:41.594Z,98333.33
2018-11-28T12:36:47.683Z,98319.16
2018-11-28T12:37:53.205Z,98326.27
2018-11-28T12:38:57.966Z,98332.61
2018-11-28T12:40:03.653Z,98337.41
2018-11-28T12:41:09.539Z,98333.05
2018-11-28T12:42:15.506Z,98331.45
2018-11-28T12:43:21.138Z,98335.64
2018-11-28T12:44:26.596Z,98329.07
2018-11-28T12:45:31.867Z,98323.09
2018-11-28T12:46:38.798Z,98324.89
2018-11-28T12:47:44.815Z,98322.93
2018-11-28T12:48:50.135Z,98329.86
2018-11-28T12:49:56.959Z,98315.34
2018-11-28T12:51:02.514Z,98327.73
2018-11-28T12:52:07.764Z,98324.86
2018-11-28T12:53:14.426Z,98320.77
2018-11-28T12:54:19.726Z,98322.83
2018-11-28T12:55:25.464Z,98324.95
2018-11-28T12:56:32.722Z,98319.98
2018-11-28T12:57:38.064Z,98322.08
2018-11-28T12:58:44.425Z,98326.27
2018-11-28T12:59:51.071Z,98319.92
2018-11-28T13:00:55.938Z,98321.17
2018-11-28T13:02:00.877Z,98321.03
2018-11-28T13:03:05.920Z,98316.55
2018-11-28T13:04:10.623Z,98316.59
2018-11-28T13:05:17.561Z,98319.47
2018-11-28T13:06:23.923Z,98313.19
2018-11-28T13:07:30.377Z,98316.20
2018-11-28T13:08:35.941Z,98306.16
2018-11-28T13:09:41.772Z,98309.14
2018-11-28T13:10:48.539Z,98306.59
2018-11-28T13:11:54.164Z,98307.41
2018-11-28T13:13:01.180Z,98302.17
2018-11-28T13:14:06.758Z,98307.08
2018-11-28T13:15:15.283Z,98304.88
2018-11-28T13:16:21.286Z,98297.82
2018-11-28T13:17:27.445Z,98290.05
2018-11-28T13:18:33.230Z,98293.09